createdAt,value
2019-03-30T00:00:46.739Z,71.990967
2019-03-30T00:02:00.508Z,71.917725
2019-03-30T00:03:14.259Z,72.125244
2019-03-30T00:04:28.005Z,72.741699
2019-03-30T00:05:41.793Z,72.644043
2019-03-30T00:06:55.558Z,72.845459
2019-03-30T00:08:09.291Z,72.741699
2019-03-30T00:09:23.058Z,72.332764
2019-03-30T00:10:36.835Z,72.949219
2019-03-30T00:11:50.592Z,73.260498
2019-03-30T00:13:04.358Z,72.98584
2019-03-30T00:14:18.093Z,72.98584
2019-03-30T00:15:31.816Z,73.498535
2019-03-30T00:16:45.636Z,73.809814
2019-03-30T00:17:59.362Z,73.846436
2019-03-30T00:19:13.143Z,73.638916
2019-03-30T00:20:27.880Z,73.638916
2019-03-30T00:21:41.677Z,74.359131
2019-03-30T00:22:55.422Z,74.87793
2019-03-30T00:24:09.218Z,74.67041
2019-03-30T00:25:22.984Z,73.846436
2019-03-30T00:26:36.751Z,73.431396
2019-03-30T00:27:50.497Z,73.846436
2019-03-30T00:29:04.255Z,73.638916
2019-03-30T00:30:19.218Z,74.255371
2019-03-30T00:31:31.742Z,74.77417
2019-03-30T00:32:45.569Z,74.87793
2019-03-30T00:33:59.331Z,75.085449
2019-03-30T00:35:13.105Z,75.012207
2019-03-30T00:36:26.981Z,74.603271
2019-03-30T00:37:40.644Z,74.603271
2019-03-30T00:38:54.432Z,75.219727
2019-03-30T00:40:08.186Z,74.707031
2019-03-30T00:41:22.000Z,74.707031
2019-03-30T00:42:35.757Z,74.810791
2019-03-30T00:43:49.515Z,74.395752
2019-03-30T00:45:03.275Z,74.499512
2019-03-30T00:46:17.044Z,75.219727
2019-03-30T00:47:30.820Z,75.427246
2019-03-30T00:48:44.575Z,76.049805
2019-03-30T00:49:58.345Z,75.634766
2019-03-30T00:51:12.110Z,75.531006
2019-03-30T00:52:25.913Z,75.427246
2019-03-30T00:53:39.695Z,74.914551
2019-03-30T00:54:53.431Z,75.531006
2019-03-30T00:56:07.196Z,75.219727
2019-03-30T00:57:20.969Z,75.427246
2019-03-30T00:58:34.713Z,75.219727
2019-03-30T00:59:48.456Z,75.427246
2019-03-30T01:01:02.247Z,75.152588
2019-03-30T01:02:15.993Z,74.841309
2019-03-30T01:03:29.750Z,76.184082
2019-03-30T01:04:43.495Z,75.256348
2019-03-30T01:05:58.303Z,75.360107
2019-03-30T01:07:11.008Z,76.391602
2019-03-30T01:08:24.793Z,75.567627
2019-03-30T01:09:38.556Z,75.567627
2019-03-30T01:10:52.296Z,75.152588
2019-03-30T01:12:06.077Z,76.391602
2019-03-30T01:13:19.851Z,76.184082
2019-03-30T01:14:33.608Z,75.775146
2019-03-30T01:15:47.392Z,75.256348
2019-03-30T01:17:01.131Z,75.878906
2019-03-30T01:18:14.904Z,75.152588
2019-03-30T01:19:28.653Z,75.152588
2019-03-30T01:20:42.407Z,76.184082
2019-03-30T01:21:56.444Z,76.599121
2019-03-30T01:23:10.004Z,75.671387
2019-03-30T01:24:23.834Z,75.360107
2019-03-30T01:25:37.536Z,75.256348
2019-03-30T01:26:51.287Z,75.256348
2019-03-30T01:28:05.015Z,75.463867
2019-03-30T01:29:18.795Z,74.737549
2019-03-30T01:30:32.571Z,74.810791
2019-03-30T01:31:46.308Z,74.914551
2019-03-30T01:33:00.086Z,74.914551
2019-03-30T01:34:13.842Z,74.151611
2019-03-30T01:35:27.634Z,74.047852
2019-03-30T01:36:41.337Z,74.047852
2019-03-30T01:37:56.138Z,73.742676
2019-03-30T01:39:09.869Z,73.535156
2019-03-30T01:40:23.612Z,73.193359
2019-03-30T01:41:37.348Z,72.88208
2019-03-30T01:42:51.168Z,73.291016
2019-03-30T01:44:04.956Z,72.88208
2019-03-30T01:45:18.716Z,72.88208
2019-03-30T01:46:32.466Z,72.88208
2019-03-30T01:47:46.249Z,72.467041
2019-03-30T01:49:00.018Z,72.570801
2019-03-30T01:50:17.455Z,72.467041
2019-03-30T01:51:27.507Z,72.259521
2019-03-30T01:52:41.260Z,71.850586
2019-03-30T01:53:55.059Z,72.155762
2019-03-30T01:55:08.820Z,71.954346
2019-03-30T01:56:22.657Z,71.746826
2019-03-30T01:57:36.456Z,71.746826
2019-03-30T01:58:50.198Z,71.954346
2019-03-30T02:00:03.959Z,72.058105
2019-03-30T02:01:17.687Z,71.954346
2019-03-30T02:02:31.481Z,71.746826
2019-03-30T02:03:45.256Z,72.259521
2019-03-30T02:04:59.046Z,72.155762
2019-03-30T02:06:12.796Z,72.155762
2019-03-30T02:07:26.578Z,72.363281
2019-03-30T02:08:40.449Z,72.363281
2019-03-30T02:09:54.129Z,72.363281
2019-03-30T02:11:07.892Z,72.363281
2019-03-30T02:12:21.649Z,72.259521
2019-03-30T02:13:35.443Z,72.259521
2019-03-30T02:14:49.198Z,72.259521
2019-03-30T02:16:02.973Z,72.259521
2019-03-30T02:17:20.052Z,72.259521
2019-03-30T02:18:30.505Z,71.954346
2019-03-30T02:19:44.262Z,72.058105
2019-03-30T02:20:58.036Z,71.606445
2019-03-30T02:22:11.774Z,71.508789
2019-03-30T02:23:25.534Z,71.606445
2019-03-30T02:24:39.342Z,71.606445
2019-03-30T02:25:53.108Z,71.606445
2019-03-30T02:27:06.864Z,71.405029
2019-03-30T02:28:20.644Z,71.710205
2019-03-30T02:29:34.403Z,71.710205
2019-03-30T02:30:48.154Z,71.710205
2019-03-30T02:32:01.925Z,71.508789
2019-03-30T02:33:15.682Z,71.813965
2019-03-30T02:34:29.417Z,71.917725
2019-03-30T02:35:43.190Z,71.539307
2019-03-30T02:36:56.933Z,72.363281
2019-03-30T02:38:10.703Z,72.259521
2019-03-30T02:39:24.483Z,72.570801
2019-03-30T02:40:38.263Z,72.674561
2019-03-30T02:41:52.013Z,72.363281
2019-03-30T02:43:05.756Z,72.607422
2019-03-30T02:44:19.547Z,73.120117
2019-03-30T02:45:33.286Z,72.808838
2019-03-30T02:46:47.070Z,72.503662
2019-03-30T02:48:00.807Z,73.535156
2019-03-30T02:49:14.652Z,73.431396
2019-03-30T02:50:28.429Z,73.431396
2019-03-30T02:51:43.137Z,73.742676
2019-03-30T02:52:56.930Z,73.535156
2019-03-30T02:54:10.689Z,74.255371
2019-03-30T02:55:24.460Z,74.255371
2019-03-30T02:56:38.214Z,74.359131
2019-03-30T02:57:51.997Z,74.707031
2019-03-30T02:59:05.758Z,74.359131
2019-03-30T03:00:19.565Z,74.914551
2019-03-30T03:01:33.298Z,74.810791
2019-03-30T03:02:47.042Z,74.084473
2019-03-30T03:04:00.808Z,74.395752
2019-03-30T03:05:14.587Z,74.499512
2019-03-30T03:06:28.338Z,73.364258
2019-03-30T03:07:42.110Z,74.188232
2019-03-30T03:08:55.873Z,74.499512
2019-03-30T03:10:09.655Z,75.219727
2019-03-30T03:11:23.443Z,74.499512
2019-03-30T03:12:37.200Z,74.291992
2019-03-30T03:13:50.952Z,74.395752
2019-03-30T03:15:04.774Z,74.530029
2019-03-30T03:16:18.545Z,74.017334
2019-03-30T03:17:32.299Z,75.048828
2019-03-30T03:18:46.133Z,74.432373
2019-03-30T03:19:59.842Z,74.633789
2019-03-30T03:21:13.594Z,75.878906
2019-03-30T03:22:27.366Z,75.048828
2019-03-30T03:23:41.143Z,75.982666
2019-03-30T03:24:54.931Z,75.878906
2019-03-30T03:26:08.734Z,75.463867
2019-03-30T03:27:22.459Z,75.567627
2019-03-30T03:28:36.235Z,75.152588
2019-03-30T03:29:50.049Z,75.256348
2019-03-30T03:31:03.820Z,75.256348
2019-03-30T03:32:17.559Z,75.463867
2019-03-30T03:33:31.306Z,74.633789
2019-03-30T03:34:45.252Z,75.463867
2019-03-30T03:35:58.850Z,75.048828
2019-03-30T03:37:12.642Z,75.671387
2019-03-30T03:38:26.382Z,75.671387
2019-03-30T03:39:41.119Z,75.671387
2019-03-30T03:40:55.086Z,75.775146
2019-03-30T03:42:08.842Z,75.463867
2019-03-30T03:43:22.618Z,75.463867
2019-03-30T03:44:36.353Z,75.360107
2019-03-30T03:45:50.111Z,75.048828
2019-03-30T03:47:03.861Z,75.256348
2019-03-30T03:48:17.625Z,75.463867
2019-03-30T03:49:31.407Z,75.323486
2019-03-30T03:50:45.308Z,75.219727
2019-03-30T03:51:58.920Z,75.012207
2019-03-30T03:53:12.690Z,75.115967
2019-03-30T03:54:26.425Z,74.914551
2019-03-30T03:55:41.185Z,74.707031
2019-03-30T03:56:54.938Z,74.810791
2019-03-30T03:58:08.724Z,75.012207
2019-03-30T03:59:22.461Z,75.012207
2019-03-30T04:00:36.238Z,74.603271
2019-03-30T04:01:50.008Z,74.499512
2019-03-30T04:03:03.770Z,74.707031
2019-03-30T04:04:17.522Z,74.914551
2019-03-30T04:05:31.320Z,74.914551
2019-03-30T04:06:45.088Z,74.499512
2019-03-30T04:07:58.855Z,74.810791
2019-03-30T04:09:12.610Z,74.707031
2019-03-30T04:10:26.374Z,74.810791
2019-03-30T04:11:40.161Z,74.914551
2019-03-30T04:12:53.931Z,74.707031
2019-03-30T04:14:08.662Z,74.707031
2019-03-30T04:15:22.406Z,74.810791
2019-03-30T04:16:36.188Z,74.707031
2019-03-30T04:17:49.910Z,74.810791
2019-03-30T04:19:03.664Z,74.810791
2019-03-30T04:20:17.456Z,74.499512
2019-03-30T04:21:43.366Z,74.395752
2019-03-30T04:22:45.924Z,74.707031
2019-03-30T04:23:59.680Z,74.395752
2019-03-30T04:25:13.434Z,74.291992
2019-03-30T04:26:27.284Z,74.810791
2019-03-30T04:27:41.035Z,74.810791
2019-03-30T04:28:54.793Z,74.810791
2019-03-30T04:30:08.534Z,74.810791
2019-03-30T04:31:22.324Z,74.707031
2019-03-30T04:32:36.075Z,75.115967
2019-03-30T04:33:49.843Z,74.810791
2019-03-30T04:35:03.590Z,74.914551
2019-03-30T04:36:17.374Z,75.671387
2019-03-30T04:37:31.126Z,75.463867
2019-03-30T04:38:44.895Z,75.256348
2019-03-30T04:39:58.642Z,75.671387
2019-03-30T04:41:12.436Z,75.567627
2019-03-30T04:42:26.214Z,75.360107
2019-03-30T04:43:39.944Z,75.671387
2019-03-30T04:44:53.702Z,75.567627
2019-03-30T04:46:07.536Z,76.086426
2019-03-30T04:47:21.250Z,75.878906
2019-03-30T04:48:34.999Z,76.184082
2019-03-30T04:49:48.731Z,76.086426
2019-03-30T04:51:02.488Z,75.878906
2019-03-30T04:52:16.259Z,75.775146
2019-03-30T04:53:30.025Z,76.086426
2019-03-30T04:54:43.803Z,75.775146
2019-03-30T04:55:57.820Z,75.775146
2019-03-30T04:57:11.578Z,75.878906
2019-03-30T04:58:25.336Z,75.878906
2019-03-30T04:59:39.092Z,75.567627
2019-03-30T05:00:52.856Z,75.878906
2019-03-30T05:02:06.636Z,76.184082
2019-03-30T05:03:20.418Z,76.086426
2019-03-30T05:04:34.175Z,75.878906
2019-03-30T05:05:47.937Z,75.878906
2019-03-30T05:07:01.703Z,75.463867
2019-03-30T05:08:15.470Z,75.982666
2019-03-30T05:09:29.268Z,76.184082
2019-03-30T05:10:43.010Z,76.086426
2019-03-30T05:11:56.778Z,75.878906
2019-03-30T05:13:10.556Z,75.775146
2019-03-30T05:14:24.311Z,75.567627
2019-03-30T05:15:38.087Z,75.671387
2019-03-30T05:16:51.885Z,75.360107
2019-03-30T05:18:05.629Z,75.463867
2019-03-30T05:19:19.393Z,75.463867
2019-03-30T05:20:33.159Z,75.152588
2019-03-30T05:21:46.916Z,75.878906
2019-03-30T05:23:01.719Z,75.219727
2019-03-30T05:24:15.447Z,75.323486
2019-03-30T05:25:29.212Z,75.219727
2019-03-30T05:26:43.002Z,75.012207
2019-03-30T05:27:56.768Z,75.323486
2019-03-30T05:29:10.537Z,75.012207
2019-03-30T05:30:24.340Z,75.219727
2019-03-30T05:31:38.095Z,75.012207
2019-03-30T05:33:04.837Z,75.012207
2019-03-30T05:34:06.605Z,75.012207
2019-03-30T05:35:20.365Z,74.981689
2019-03-30T05:36:34.135Z,74.67041
2019-03-30T05:37:47.941Z,74.87793
2019-03-30T05:39:02.748Z,74.77417
2019-03-30T05:40:16.585Z,74.87793
2019-03-30T05:41:31.247Z,74.56665
2019-03-30T05:42:45.012Z,74.151611
2019-03-30T05:43:58.781Z,74.151611
2019-03-30T05:45:12.567Z,74.151611
2019-03-30T05:46:26.297Z,74.255371
2019-03-30T05:47:40.217Z,74.56665
2019-03-30T05:48:53.955Z,74.255371
2019-03-30T05:50:07.940Z,74.359131
2019-03-30T05:51:21.676Z,74.151611
2019-03-30T05:52:35.902Z,74.047852
2019-03-30T05:53:49.277Z,73.913574
2019-03-30T05:55:03.023Z,73.706055
2019-03-30T05:56:16.795Z,74.017334
2019-03-30T05:57:30.592Z,74.841309
2019-03-30T05:58:44.417Z,74.224854
2019-03-30T05:59:58.232Z,73.913574
2019-03-30T06:01:11.985Z,73.468018
2019-03-30T06:02:25.899Z,73.260498
2019-03-30T06:03:40.071Z,73.156738
2019-03-30T06:04:54.039Z,72.949219
2019-03-30T06:06:07.740Z,73.052979
2019-03-30T06:07:21.509Z,72.711182
2019-03-30T06:08:35.262Z,72.503662
2019-03-30T06:09:49.033Z,72.918701
2019-03-30T06:11:02.759Z,71.954346
2019-03-30T06:12:16.541Z,71.203613
2019-03-30T06:13:30.318Z,69.696045
2019-03-30T06:14:44.111Z,67.614746
2019-03-30T06:15:57.885Z,64.746094
2019-03-30T06:17:12.663Z,63.146973
2019-03-30T06:18:26.469Z,61.553955
2019-03-30T06:19:40.230Z,60.778809
2019-03-30T06:20:53.991Z,59.527588
2019-03-30T06:22:07.753Z,57.861328
2019-03-30T06:23:21.512Z,57.092285
2019-03-30T06:24:35.269Z,56.555176
2019-03-30T06:25:49.040Z,56.964111
2019-03-30T06:27:02.882Z,54.79126
2019-03-30T06:28:16.634Z,56.018066
2019-03-30T06:29:30.436Z,55.480957
2019-03-30T06:30:44.163Z,55.712891
2019-03-30T06:31:57.890Z,54.89502
2019-03-30T06:33:11.673Z,55.102539
2019-03-30T06:34:25.446Z,57.653809
2019-03-30T06:35:39.261Z,57.141113
2019-03-30T06:36:52.998Z,55.303955
2019-03-30T06:38:06.850Z,55.914307
2019-03-30T06:39:20.617Z,54.388428
2019-03-30T06:40:34.395Z,57.012939
2019-03-30T06:41:48.156Z,56.195068
2019-03-30T06:43:01.911Z,54.846191
2019-03-30T06:44:15.673Z,55.255127
2019-03-30T06:45:29.430Z,54.510498
2019-03-30T06:46:43.169Z,55.126953
2019-03-30T06:47:57.014Z,54.083252
2019-03-30T06:49:11.095Z,52.960205
2019-03-30T06:50:25.542Z,55.096436
2019-03-30T06:51:39.381Z,56.018066
2019-03-30T06:52:57.756Z,56.628418
2019-03-30T06:54:06.967Z,55.175781
2019-03-30T06:55:20.737Z,53.851318
2019-03-30T06:56:34.512Z,54.156494
2019-03-30T06:57:48.325Z,53.137207
2019-03-30T06:59:02.117Z,53.625488
2019-03-30T07:00:16.071Z,54.205322
2019-03-30T07:01:29.843Z,52.478027
2019-03-30T07:02:43.958Z,54.79126
2019-03-30T07:03:57.959Z,51.721191
2019-03-30T07:05:12.725Z,49.761963
2019-03-30T07:06:26.509Z,51.922607
2019-03-30T07:07:40.270Z,52.655029
2019-03-30T07:09:01.127Z,54.998779
2019-03-30T07:10:14.889Z,53.369141
2019-03-30T07:11:28.604Z,52.758789
2019-03-30T07:12:42.371Z,50.598145
2019-03-30T07:13:56.126Z,50.500488
2019-03-30T07:15:09.883Z,51.745605
2019-03-30T07:16:23.690Z,51.538086
2019-03-30T07:17:38.355Z,52.581787
2019-03-30T07:18:53.106Z,53.417969
2019-03-30T07:20:06.893Z,51.715088
2019-03-30T07:21:20.680Z,53.875732
2019-03-30T07:22:34.432Z,53.393555
2019-03-30T07:23:48.180Z,55.969238
2019-03-30T07:25:01.954Z,55.993652
2019-03-30T07:26:15.798Z,55.175781
2019-03-30T07:27:29.476Z,56.097412
2019-03-30T07:28:43.235Z,56.835938
2019-03-30T07:29:57.027Z,55.102539
2019-03-30T07:31:10.766Z,55.81665
2019-03-30T07:32:24.512Z,58.465576
2019-03-30T07:33:38.292Z,56.732178
2019-03-30T07:34:52.085Z,56.225586
2019-03-30T07:36:05.869Z,57.067871
2019-03-30T07:37:19.588Z,56.658936
2019-03-30T07:38:33.342Z,57.067871
2019-03-30T07:39:47.210Z,57.879639
2019-03-30T07:41:00.940Z,58.392334
2019-03-30T07:42:13.672Z,57.269287
2019-03-30T07:43:27.444Z,59.106445
2019-03-30T07:44:41.212Z,57.550049
2019-03-30T07:45:55.000Z,57.550049
2019-03-30T07:47:08.647Z,57.342529
2019-03-30T07:48:22.425Z,58.1604
2019-03-30T07:49:36.192Z,56.835938
2019-03-30T07:50:49.929Z,56.835938
2019-03-30T07:52:03.681Z,56.732178
2019-03-30T07:53:25.994Z,57.037354
2019-03-30T07:54:31.255Z,56.628418
2019-03-30T07:55:44.994Z,57.037354
2019-03-30T07:57:05.464Z,58.1604
2019-03-30T07:58:14.398Z,57.141113
2019-03-30T07:59:28.169Z,58.569336
2019-03-30T08:00:41.903Z,57.550049
2019-03-30T08:01:55.689Z,57.550049
2019-03-30T08:03:09.356Z,57.958984
2019-03-30T08:04:23.143Z,57.550049
2019-03-30T08:05:36.866Z,58.673096
2019-03-30T08:06:50.594Z,58.1604
2019-03-30T08:08:04.336Z,59.155273
2019-03-30T08:09:17.083Z,55.688477
2019-03-30T08:10:30.894Z,57.214355
2019-03-30T08:11:44.661Z,57.293701
2019-03-30T08:12:58.419Z,56.988525
2019-03-30T08:14:12.158Z,56.988525
2019-03-30T08:15:25.943Z,55.633545
2019-03-30T08:16:39.669Z,56.958008
2019-03-30T08:17:53.480Z,55.737305
2019-03-30T08:19:07.202Z,56.726074
2019-03-30T08:20:20.960Z,56.933594
2019-03-30T08:21:34.698Z,54.998779
2019-03-30T08:22:48.445Z,54.89502
2019-03-30T08:24:02.190Z,56.195068
2019-03-30T08:25:15.974Z,55.175781
2019-03-30T08:26:29.687Z,53.955078
2019-03-30T08:27:43.415Z,53.546143
2019-03-30T08:28:57.184Z,55.554199
2019-03-30T08:30:10.967Z,55.657959
2019-03-30T08:31:24.688Z,55.047607
2019-03-30T08:32:38.441Z,53.930664
2019-03-30T08:33:52.180Z,54.309082
2019-03-30T08:35:05.949Z,54.815674
2019-03-30T08:36:19.749Z,55.731201
2019-03-30T08:37:33.444Z,54.309082
2019-03-30T08:38:47.184Z,54.486084
2019-03-30T08:40:00.962Z,53.4729
2019-03-30T08:41:14.709Z,53.063965
2019-03-30T08:42:28.460Z,53.778076
2019-03-30T08:43:42.231Z,53.546143
2019-03-30T08:44:56.021Z,53.039551
2019-03-30T08:46:09.766Z,51.922607
2019-03-30T08:47:23.520Z,53.851318
2019-03-30T08:48:37.274Z,52.606201
2019-03-30T08:49:50.995Z,52.301025
2019-03-30T08:51:04.797Z,52.099609
2019-03-30T08:52:18.662Z,53.295898
2019-03-30T08:53:32.403Z,51.263428
2019-03-30T08:54:47.289Z,50.55542
2019-03-30T08:56:01.134Z,51.062012
2019-03-30T08:57:14.873Z,50.756836
2019-03-30T08:58:28.621Z,52.484131
2019-03-30T08:59:42.360Z,52.685547
2019-03-30T09:00:56.102Z,50.628662
2019-03-30T09:02:09.827Z,50.933838
2019-03-30T09:03:23.574Z,52.557373
2019-03-30T09:04:37.314Z,50.427246
2019-03-30T09:05:51.070Z,50.933838
2019-03-30T09:07:04.823Z,52.050781
2019-03-30T09:08:18.599Z,50.732422
2019-03-30T09:09:32.340Z,49.816895
2019-03-30T09:10:46.095Z,50.201416
2019-03-30T09:11:59.866Z,48.376465
2019-03-30T09:13:13.677Z,49.188232
2019-03-30T09:14:27.423Z,50.811768
2019-03-30T09:15:41.177Z,50.708008
2019-03-30T09:16:54.911Z,49.871826
2019-03-30T09:18:08.623Z,50.079346
2019-03-30T09:19:22.364Z,50.079346
2019-03-30T09:20:36.124Z,48.657227
2019-03-30T09:21:49.846Z,48.962402
2019-03-30T09:23:03.617Z,48.455811
2019-03-30T09:24:17.362Z,49.468994
2019-03-30T09:25:31.698Z,47.845459
2019-03-30T09:26:45.419Z,46.936035
2019-03-30T09:27:59.221Z,48.254395
2019-03-30T09:29:13.512Z,49.060059
2019-03-30T09:30:27.281Z,50.152588
2019-03-30T09:31:41.027Z,48.632812
2019-03-30T09:32:54.769Z,49.77417
2019-03-30T09:34:08.541Z,48.22998
2019-03-30T09:35:22.291Z,47.619629
2019-03-30T09:36:36.163Z,48.736572
2019-03-30T09:37:49.767Z,47.821045
2019-03-30T09:39:03.542Z,48.126221
2019-03-30T09:40:17.314Z,48.535156
2019-03-30T09:41:31.114Z,47.497559
2019-03-30T09:42:44.858Z,48.406982
2019-03-30T09:43:58.578Z,48.406982
2019-03-30T09:45:12.303Z,49.32251
2019-03-30T09:46:26.045Z,47.802734
2019-03-30T09:47:39.789Z,48.614502
2019-03-30T09:48:53.518Z,46.887207
2019-03-30T09:50:07.268Z,48.913574
2019-03-30T09:51:21.040Z,44.946289
2019-03-30T09:52:34.759Z,47.070312
2019-03-30T09:53:48.527Z,45.977783
2019-03-30T09:55:02.293Z,46.258545
2019-03-30T09:56:16.084Z,47.601318
2019-03-30T09:57:29.831Z,45.776367
2019-03-30T09:58:43.571Z,48.815918
2019-03-30T09:59:57.303Z,46.380615
2019-03-30T10:01:11.053Z,48.309326
2019-03-30T10:02:24.828Z,47.393799
2019-03-30T10:03:38.589Z,46.588135
2019-03-30T10:04:52.327Z,48.181152
2019-03-30T10:06:06.087Z,46.057129
2019-03-30T10:07:19.837Z,48.687744
2019-03-30T10:08:33.595Z,47.77832
2019-03-30T10:09:47.538Z,48.791504
2019-03-30T10:11:01.131Z,47.174072
2019-03-30T10:12:14.857Z,47.045898
2019-03-30T10:13:28.615Z,48.565674
2019-03-30T10:14:42.373Z,46.746826
2019-03-30T10:15:56.168Z,47.149658
2019-03-30T10:17:09.927Z,47.937012
2019-03-30T10:18:23.677Z,48.034668
2019-03-30T10:19:37.413Z,46.21582
2019-03-30T10:20:52.125Z,48.242188
2019-03-30T10:22:06.455Z,47.125244
2019-03-30T10:23:20.188Z,47.027588
2019-03-30T10:24:38.191Z,47.43042
2019-03-30T10:25:47.684Z,46.826172
2019-03-30T10:27:01.429Z,48.138428
2019-03-30T10:28:15.193Z,46.801758
2019-03-30T10:29:28.931Z,45.892334
2019-03-30T10:30:42.738Z,47.30835
2019-03-30T10:31:59.730Z,45.690918
2019-03-30T10:33:10.274Z,44.98291
2019-03-30T10:34:24.044Z,46.069336
2019-03-30T10:35:37.772Z,46.478271
2019-03-30T10:36:51.561Z,44.958496
2019-03-30T10:38:05.288Z,45.587158
2019-03-30T10:39:19.038Z,45.385742
2019-03-30T10:40:32.807Z,46.801758
2019-03-30T10:41:46.586Z,47.711182
2019-03-30T10:42:59.366Z,47.406006
2019-03-30T10:44:13.109Z,47.991943
2019-03-30T10:45:26.856Z,46.801758
2019-03-30T10:46:41.376Z,47.607422
2019-03-30T10:47:55.120Z,47.406006
2019-03-30T10:49:08.867Z,46.801758
2019-03-30T10:50:22.616Z,47.589111
2019-03-30T10:51:36.370Z,47.888184
2019-03-30T10:52:50.100Z,48.498535
2019-03-30T10:54:03.841Z,45.062256
2019-03-30T10:55:17.585Z,46.557617
2019-03-30T10:56:31.323Z,46.960449
2019-03-30T10:57:45.132Z,46.356201
2019-03-30T10:58:59.853Z,46.252441
2019-03-30T11:00:13.623Z,46.759033
2019-03-30T11:01:27.477Z,43.200684
2019-03-30T11:02:41.160Z,44.110107
2019-03-30T11:03:54.932Z,42.901611
2019-03-30T11:05:08.684Z,44.897461
2019-03-30T11:06:22.414Z,42.578125
2019-03-30T11:07:36.201Z,44.091797
2019-03-30T11:08:49.953Z,44.793701
2019-03-30T11:10:03.693Z,43.078613
2019-03-30T11:11:17.461Z,41.851807
2019-03-30T11:12:31.196Z,46.289062
2019-03-30T11:13:44.960Z,44.976807
2019-03-30T11:14:58.706Z,42.553711
2019-03-30T11:16:12.455Z,43.164062
2019-03-30T11:17:26.189Z,43.060303
2019-03-30T11:18:39.928Z,43.566895
2019-03-30T11:19:53.664Z,41.949463
2019-03-30T11:21:07.417Z,43.341064
2019-03-30T11:22:21.184Z,43.444824
2019-03-30T11:23:34.920Z,42.132568
2019-03-30T11:24:48.692Z,43.64624
2019-03-30T11:26:03.385Z,44.750977
2019-03-30T11:27:17.145Z,40.014648
2019-03-30T11:28:30.906Z,41.931152
2019-03-30T11:29:44.649Z,43.54248
2019-03-30T11:30:58.385Z,42.736816
2019-03-30T11:32:12.121Z,42.840576
2019-03-30T11:33:25.842Z,42.437744
2019-03-30T11:34:39.581Z,41.424561
2019-03-30T11:35:53.317Z,41.827393
2019-03-30T11:37:07.117Z,42.63916
2019-03-30T11:38:20.931Z,41.625977
2019-03-30T11:39:34.613Z,43.847656
2019-03-30T11:40:48.397Z,42.63916
2019-03-30T11:42:02.137Z,42.736816
2019-03-30T11:43:15.929Z,40.216064
2019-03-30T11:44:29.656Z,41.931152
2019-03-30T11:45:43.389Z,41.424561
2019-03-30T11:46:57.138Z,42.132568
2019-03-30T11:48:10.902Z,42.5354
2019-03-30T11:49:24.636Z,41.625977
2019-03-30T11:50:38.393Z,42.333984
2019-03-30T11:51:52.131Z,43.139648
2019-03-30T11:53:05.882Z,42.333984
2019-03-30T11:54:19.613Z,42.938232
2019-03-30T11:55:33.371Z,43.52417
2019-03-30T11:56:47.113Z,40.924072
2019-03-30T11:58:00.899Z,43.444824
2019-03-30T11:59:14.633Z,42.736816
2019-03-30T12:00:28.381Z,43.847656
2019-03-30T12:01:42.120Z,42.437744
2019-03-30T12:02:55.878Z,42.437744
2019-03-30T12:04:09.626Z,40.820312
2019-03-30T12:05:23.384Z,43.341064
2019-03-30T12:06:37.146Z,40.924072
2019-03-30T12:07:50.900Z,42.236328
2019-03-30T12:09:04.770Z,40.820312
2019-03-30T12:10:18.503Z,42.315674
2019-03-30T12:11:32.295Z,40.802002
2019-03-30T12:12:46.058Z,41.607666
2019-03-30T12:13:59.795Z,38.989258
2019-03-30T12:15:13.529Z,43.218994
2019-03-30T12:16:27.283Z,42.816162
2019-03-30T12:17:41.400Z,39.39209
2019-03-30T12:18:54.775Z,42.114258
2019-03-30T12:20:08.521Z,38.38501
2019-03-30T12:21:22.258Z,42.919922
2019-03-30T12:22:35.996Z,41.308594
2019-03-30T12:23:49.762Z,41.711426
2019-03-30T12:25:03.522Z,41.711426
2019-03-30T12:26:17.273Z,41.625977
2019-03-30T12:27:31.005Z,42.437744
2019-03-30T12:28:44.787Z,42.034912
2019-03-30T12:29:58.530Z,41.125488
2019-03-30T12:31:12.297Z,40.41748
2019-03-30T12:32:26.077Z,42.657471
2019-03-30T12:33:39.815Z,41.851807
2019-03-30T12:34:53.560Z,43.060303
2019-03-30T12:36:07.308Z,41.247559
2019-03-30T12:37:21.051Z,40.435791
2019-03-30T12:38:34.811Z,41.748047
2019-03-30T12:39:48.614Z,42.053223
2019-03-30T12:41:02.329Z,39.428711
2019-03-30T12:42:16.082Z,40.722656
2019-03-30T12:43:29.817Z,42.333984
2019-03-30T12:44:43.596Z,42.034912
2019-03-30T12:45:56.369Z,41.650391
2019-03-30T12:47:10.436Z,41.345215
2019-03-30T12:48:23.875Z,40.338135
2019-03-30T12:49:37.626Z,40.338135
2019-03-30T12:50:51.341Z,41.546631
2019-03-30T12:52:05.083Z,41.143799
2019-03-30T12:53:18.838Z,40.838623
2019-03-30T12:54:32.660Z,41.448975
2019-03-30T12:57:00.151Z,43.041992
2019-03-30T12:58:13.914Z,42.456055
2019-03-30T12:59:27.671Z,44.067383
2019-03-30T13:00:41.392Z,40.722656
2019-03-30T13:01:55.193Z,43.243408
2019-03-30T13:03:08.924Z,41.223145
2019-03-30T13:04:22.683Z,43.743896
2019-03-30T13:05:36.423Z,41.125488
2019-03-30T13:06:51.161Z,41.326904
2019-03-30T13:08:04.943Z,41.125488
2019-03-30T13:09:18.896Z,40.39917
2019-03-30T13:10:32.636Z,42.315674
2019-03-30T13:11:47.398Z,40.100098
2019-03-30T13:13:01.224Z,42.114258
2019-03-30T13:14:14.948Z,41.308594
2019-03-30T13:15:28.756Z,41.107178
2019-03-30T13:16:42.483Z,40.301514
2019-03-30T13:17:56.244Z,38.28125
2019-03-30T13:19:10.036Z,39.39209
2019-03-30T13:20:23.822Z,40.301514
2019-03-30T13:21:51.422Z,39.898682
2019-03-30T13:22:52.275Z,41.204834
2019-03-30T13:24:06.010Z,40.197754
2019-03-30T13:25:19.799Z,39.794922
2019-03-30T13:26:33.600Z,41.204834
2019-03-30T13:27:47.363Z,39.794922
2019-03-30T13:29:01.084Z,42.919922
2019-03-30T13:30:14.892Z,39.996338
2019-03-30T13:31:28.630Z,42.315674
2019-03-30T13:32:42.455Z,41.003418
2019-03-30T13:33:56.207Z,41.711426
2019-03-30T13:35:09.991Z,41.51001
2019-03-30T13:36:23.732Z,41.107178
2019-03-30T13:37:37.497Z,39.074707
2019-03-30T13:38:51.282Z,41.589355
2019-03-30T13:40:05.085Z,40.686035
2019-03-30T13:41:18.820Z,40.081787
2019-03-30T13:42:32.592Z,38.873291
2019-03-30T13:43:46.320Z,38.568115
2019-03-30T13:45:03.135Z,42.700195
2019-03-30T13:46:13.837Z,38.067627
2019-03-30T13:47:27.563Z,40.081787
2019-03-30T13:48:41.334Z,39.575195
2019-03-30T13:49:56.085Z,38.470459
2019-03-30T13:51:09.835Z,39.276123
2019-03-30T13:52:23.603Z,41.387939
2019-03-30T13:53:37.362Z,39.978027
2019-03-30T13:54:51.115Z,38.970947
2019-03-30T13:56:16.437Z,38.970947
2019-03-30T13:57:19.602Z,42.193604
2019-03-30T13:58:36.363Z,39.276123
2019-03-30T13:59:47.098Z,38.586426
2019-03-30T14:01:00.922Z,42.816162
2019-03-30T14:02:14.674Z,39.575195
2019-03-30T14:03:28.450Z,40.081787
2019-03-30T14:04:42.207Z,40.484619